createdAt,value
2022-08-03T00:01:25.546Z,101195.50
2022-08-03T00:03:27.738Z,101200.72
2022-08-03T00:05:29.902Z,101193.75
2022-08-03T00:07:31.953Z,101197.31
2022-08-03T00:09:35.694Z,101195.63
2022-08-03T00:11:38.959Z,101191.31
2022-08-03T00:13:41.298Z,101185.16
2022-08-03T00:15:43.713Z,101191.25
2022-08-03T00:17:52.782Z,101190.50
2022-08-03T00:19:55.735Z,101185.97
2022-08-03T00:21:57.763Z,101196.47
2022-08-03T00:23:59.961Z,101192.06
2022-08-03T00:26:02.249Z,101191.19
2022-08-03T00:28:05.087Z,101192.09
2022-08-03T00:30:07.829Z,101182.41
2022-08-03T00:32:09.902Z,101185.09
2022-08-03T00:34:14.063Z,101179.88
2022-08-03T00:36:16.152Z,101184.25
2022-08-03T00:38:26.511Z,101179.16
2022-08-03T00:40:29.065Z,101171.28
2022-08-03T00:42:31.371Z,101179.16
2022-08-03T00:44:40.868Z,101175.53
2022-08-03T00:46:42.810Z,101172.09
2022-08-03T00:48:44.744Z,101172.22
2022-08-03T00:50:48.296Z,101171.25
2022-08-03T00:52:57.684Z,101179.13
2022-08-03T00:55:01.534Z,101174.69
2022-08-03T00:57:03.658Z,101183.50
2022-08-03T00:59:05.844Z,101182.59
2022-08-03T01:01:08.156Z,101176.66
2022-08-03T01:03:12.100Z,101168.81
2022-08-03T01:05:14.603Z,101172.34
2022-08-03T01:07:45.335Z,101164.56
2022-08-03T01:10:12.704Z,101172.34
2022-08-03T01:12:25.546Z,101177.53
2022-08-03T01:14:46.977Z,101168.78
2022-08-03T01:16:54.848Z,101172.38
2022-08-03T01:19:33.742Z,101167.97
2022-08-03T01:22:04.547Z,101178.44
2022-08-03T01:24:32.716Z,101181.03
2022-08-03T01:26:52.857Z,101175.84
2022-08-03T01:29:16.531Z,101178.59
2022-08-03T01:31:24.217Z,101183.09
2022-08-03T01:33:35.812Z,101189.09
2022-08-03T01:35:55.567Z,101183.06
2022-08-03T01:38:00.987Z,101182.22
2022-08-03T01:40:05.271Z,101188.31
2022-08-03T01:42:10.431Z,101183.91
2022-08-03T01:44:30.155Z,101181.34
2022-08-03T01:46:35.054Z,101184.78
2022-08-03T01:48:40.024Z,101209.13
2022-08-03T01:50:43.766Z,101183.91
2022-08-03T01:52:48.367Z,101194.34
2022-08-03T01:54:52.976Z,101196.16
2022-08-03T01:56:58.746Z,101185.78
2022-08-03T01:59:02.985Z,101183.09
2022-08-03T02:01:07.243Z,101197.03
2022-08-03T02:03:12.839Z,101184.78
2022-08-03T02:05:17.267Z,101181.31
2022-08-03T02:07:21.035Z,101180.38
2022-08-03T02:09:25.869Z,101192.56
2022-08-03T02:11:32.295Z,101193.38
2022-08-03T02:13:38.543Z,101187.31
2022-08-03T02:15:44.279Z,101181.16
2022-08-03T02:17:47.878Z,101190.81
2022-08-03T02:19:51.469Z,101189.97
2022-08-03T02:21:56.316Z,101182.94
2022-08-03T02:24:03.188Z,101182.09
2022-08-03T02:26:09.674Z,101182.09
2022-08-03T02:28:33.206Z,101172.53
2022-08-03T02:30:40.564Z,101175.16
2022-08-03T02:32:48.896Z,101176.91
2022-08-03T02:34:53.533Z,101174.34
2022-08-03T02:37:00.464Z,101172.56
2022-08-03T02:39:03.990Z,101173.44
2022-08-03T02:41:11.854Z,101178.59
2022-08-03T02:43:24.460Z,101182.19
2022-08-03T02:45:29.032Z,101175.13
2022-08-03T02:47:53.136Z,101171.78
2022-08-03T02:49:58.687Z,101175.31
2022-08-03T02:52:02.787Z,101178.69
2022-08-03T02:54:06.706Z,101173.53
2022-08-03T02:56:10.037Z,101168.31
2022-08-03T02:58:25.048Z,101169.97
2022-08-03T03:00:28.613Z,101162.97
2022-08-03T03:02:31.350Z,101160.34
2022-08-03T03:04:34.176Z,101155.94
2022-08-03T03:06:36.443Z,101164.66
2022-08-03T03:08:39.404Z,101155.06
2022-08-03T03:10:42.403Z,101150.69
2022-08-03T03:12:46.882Z,101146.34
2022-08-03T03:14:49.108Z,101150.72
2022-08-03T03:16:52.732Z,101148.94
2022-08-03T03:19:02.008Z,101135.88
2022-08-03T03:21:05.169Z,101128.16
2022-08-03T03:23:08.738Z,101140.28
2022-08-03T03:25:10.710Z,101128.06
2022-08-03T03:27:16.481Z,101133.38
2022-08-03T03:29:19.106Z,101142.84
2022-08-03T03:31:21.112Z,101128.16
2022-08-03T03:33:23.822Z,101130.63
2022-08-03T03:35:27.385Z,101130.75
2022-08-03T03:37:29.372Z,101130.69
2022-08-03T03:39:31.279Z,101135.13
2022-08-03T03:41:33.897Z,101134.28
2022-08-03T03:43:36.918Z,101137.69
2022-08-03T03:45:41.609Z,101146.31
2022-08-03T03:47:43.535Z,101144.63
2022-08-03T03:49:46.253Z,101148.13
2022-08-03T03:51:48.347Z,101145.53
2022-08-03T03:54:01.232Z,101144.69
2022-08-03T03:56:03.262Z,101140.31
2022-08-03T03:58:05.555Z,101146.44
2022-08-03T04:00:08.105Z,101151.63
2022-08-03T04:02:11.139Z,101148.03
2022-08-03T04:04:31.390Z,101142.84
2022-08-03T04:06:51.635Z,101154.13
2022-08-03T04:09:19.309Z,101149.81
2022-08-03T04:11:30.407Z,101142.81
2022-08-03T04:13:40.467Z,101147.94
2022-08-03T04:15:42.960Z,101154.97
2022-08-03T04:17:46.197Z,101153.16
2022-08-03T04:19:51.497Z,101160.31
2022-08-03T04:21:58.179Z,101152.34
2022-08-03T04:24:03.746Z,101155.03
2022-08-03T04:26:10.068Z,101152.41
2022-08-03T04:28:30.963Z,101155.84
2022-08-03T04:30:37.830Z,101158.50
2022-08-03T04:32:45.473Z,101164.53
2022-08-03T04:34:48.091Z,101165.50
2022-08-03T04:36:53.109Z,101169.03
2022-08-03T04:39:18.481Z,101166.47
2022-08-03T04:41:23.377Z,101168.97
2022-08-03T04:43:26.259Z,101175.09
2022-08-03T04:45:30.458Z,101180.25
2022-08-03T04:47:36.587Z,101173.22
2022-08-03T04:49:39.424Z,101181.94
2022-08-03T04:51:42.824Z,101189.91
2022-08-03T04:53:44.857Z,101179.50
2022-08-03T04:55:46.939Z,101177.78
2022-08-03T04:57:48.700Z,101184.78
2022-08-03T05:00:02.542Z,101185.63
2022-08-03T05:02:05.068Z,101189.09
2022-08-03T05:04:08.091Z,101181.31
2022-08-03T05:06:11.360Z,101181.34
2022-08-03T05:08:13.593Z,101187.34
2022-08-03T05:10:16.630Z,101180.34
2022-08-03T05:12:18.801Z,101190.03
2022-08-03T05:14:28.074Z,101189.97
2022-08-03T05:16:30.202Z,101197.03
2022-08-03T05:18:32.574Z,101189.97
2022-08-03T05:20:34.613Z,101190.81
2022-08-03T05:22:36.533Z,101196.97
2022-08-03T05:24:38.360Z,101197.84
2022-08-03T05:26:47.923Z,101187.34
2022-08-03T05:28:51.337Z,101188.16
2022-08-03T05:30:53.491Z,101197.78
2022-08-03T05:32:55.543Z,101193.31
2022-08-03T05:34:57.254Z,101194.22
2022-08-03T05:36:58.950Z,101188.16
2022-08-03T05:39:02.794Z,101196.88
2022-08-03T05:41:21.590Z,101191.59
2022-08-03T05:43:25.431Z,101203.03
2022-08-03T05:45:28.546Z,101192.56
2022-08-03T05:47:30.581Z,101192.56
2022-08-03T05:49:32.362Z,101192.56
2022-08-03T05:51:34.473Z,101193.50
2022-08-03T05:53:36.167Z,101192.56
2022-08-03T05:55:37.873Z,101210.84
2022-08-03T05:57:40.843Z,101204.69
2022-08-03T05:59:53.715Z,101199.56
2022-08-03T06:01:57.541Z,101196.88
2022-08-03T06:03:59.761Z,101200.41
2022-08-03T06:06:01.679Z,101198.66
2022-08-03T06:08:03.956Z,101188.97
2022-08-03T06:10:36.450Z,101201.25
2022-08-03T06:12:28.438Z,101192.50
2022-08-03T06:14:30.217Z,101193.34
2022-08-03T06:16:32.120Z,101195.06
2022-08-03T06:18:34.298Z,101206.47
2022-08-03T06:20:36.038Z,101199.50
2022-08-03T06:22:37.708Z,101202.91
2022-08-03T06:24:53.531Z,101193.34
2022-08-03T06:26:57.484Z,101190.72
2022-08-03T06:28:59.310Z,101203.75
2022-08-03T06:31:01.590Z,101194.19
2022-08-03T06:33:03.273Z,101195.97
2022-08-03T06:35:08.082Z,101197.78
2022-08-03T06:37:09.816Z,101195.09
2022-08-03T06:39:13.102Z,101198.53
2022-08-03T06:41:14.911Z,101202.91
2022-08-03T06:43:16.658Z,101196.81
2022-08-03T06:45:18.694Z,101201.94
2022-08-03T06:47:20.380Z,101193.28
2022-08-03T06:49:22.150Z,101195.78
2022-08-03T06:52:02.572Z,101201.00
2022-08-03T06:53:45.602Z,101201.81
2022-08-03T06:55:51.114Z,101190.53
2022-08-03T06:57:59.959Z,101198.38
2022-08-03T07:00:09.553Z,101188.81
2022-08-03T07:02:16.158Z,101198.34
2022-08-03T07:04:21.157Z,101193.13
2022-08-03T07:06:22.939Z,101200.91
2022-08-03T07:08:33.194Z,101208.91
2022-08-03T07:10:36.372Z,101207.16
2022-08-03T07:12:55.815Z,101199.28
2022-08-03T07:15:01.889Z,101201.91
2022-08-03T07:17:04.769Z,101212.28
2022-08-03T07:19:13.685Z,101206.13
2022-08-03T07:21:17.090Z,101211.41
2022-08-03T07:23:19.324Z,101210.47
2022-08-03T07:25:21.746Z,101200.06
2022-08-03T07:27:23.688Z,101211.28
2022-08-03T07:29:25.513Z,101220.03
2022-08-03T07:31:27.413Z,101211.25
2022-08-03T07:33:35.931Z,101208.56
2022-08-03T07:35:37.886Z,101212.88
2022-08-03T07:37:39.641Z,101218.06
2022-08-03T07:39:41.359Z,101204.94
2022-08-03T07:41:43.065Z,101201.31
2022-08-03T07:43:45.988Z,101204.75
2022-08-03T07:45:50.813Z,101208.22
2022-08-03T07:47:53.580Z,101207.28
2022-08-03T07:49:56.122Z,101202.97
2022-08-03T07:52:17.042Z,101205.50
2022-08-03T07:54:18.948Z,101209.88
2022-08-03T07:56:21.528Z,101203.69
2022-08-03T07:58:24.285Z,101202.72
2022-08-03T08:00:26.254Z,101206.19
2022-08-03T08:02:28.000Z,101219.19
2022-08-03T08:04:30.245Z,101218.38
2022-08-03T08:06:32.778Z,101218.31
2022-08-03T08:08:34.612Z,101214.84
2022-08-03T08:10:36.676Z,101225.22
2022-08-03T08:12:39.390Z,101215.75
2022-08-03T08:14:42.231Z,101205.22
2022-08-03T08:16:43.907Z,101206.00
2022-08-03T08:18:45.662Z,101206.09
2022-08-03T08:20:47.876Z,101195.41
2022-08-03T08:22:55.077Z,101203.22
2022-08-03T08:24:56.875Z,101210.97
2022-08-03T08:26:58.713Z,101203.03
2022-08-03T08:29:00.459Z,101221.16
2022-08-03T08:31:02.629Z,101217.72
2022-08-03T08:33:04.501Z,101205.53
2022-08-03T08:35:07.240Z,101198.59
2022-08-03T08:37:08.918Z,101202.91
2022-08-03T08:39:10.619Z,101202.88
2022-08-03T08:41:13.907Z,101207.97
2022-08-03T08:43:15.635Z,101208.69
2022-08-03T08:45:18.970Z,101200.78
2022-08-03T08:47:24.877Z,101207.66
2022-08-03T08:49:28.324Z,101216.34
2022-08-03T08:51:54.569Z,101212.88
2022-08-03T08:53:57.867Z,101198.03
2022-08-03T08:56:02.343Z,101214.69
2022-08-03T08:58:06.322Z,101203.53
2022-08-03T09:00:11.603Z,101205.25
2022-08-03T09:02:13.842Z,101202.56
2022-08-03T09:04:16.096Z,101205.25
2022-08-03T09:06:17.830Z,101205.13
2022-08-03T09:08:20.077Z,101211.31
2022-08-03T09:10:22.197Z,101206.03
2022-08-03T09:12:42.164Z,101202.56
2022-08-03T09:15:00.883Z,101208.53
2022-08-03T09:17:06.166Z,101212.19
2022-08-03T09:19:14.823Z,101200.69
2022-08-03T09:21:32.010Z,101193.63
2022-08-03T09:24:02.178Z,101196.91
2022-08-03T09:26:04.842Z,101193.41
2022-08-03T09:28:13.802Z,101199.41
2022-08-03T09:30:36.352Z,101201.22
2022-08-03T09:32:38.477Z,101193.38
2022-08-03T09:34:40.219Z,101198.75
2022-08-03T09:36:46.904Z,101204.09
2022-08-03T09:39:06.489Z,101192.69
2022-08-03T09:41:18.637Z,101195.28
2022-08-03T09:43:23.631Z,101201.53
2022-08-03T09:45:30.116Z,101182.19
2022-08-03T09:47:36.473Z,101175.00
2022-08-03T09:49:41.612Z,101181.81
2022-08-03T09:52:30.272Z,101185.31
2022-08-03T09:54:10.735Z,101185.44
2022-08-03T09:56:33.346Z,101189.63
2022-08-03T09:58:47.062Z,101190.53
2022-08-03T10:01:23.952Z,101194.53
2022-08-03T10:03:28.883Z,101189.16
2022-08-03T10:05:33.724Z,101196.91
2022-08-03T10:07:48.353Z,101195.19
2022-08-03T10:10:30.322Z,101196.03
2022-08-03T10:12:21.964Z,101189.84
2022-08-03T10:14:26.526Z,101179.41
2022-08-03T10:16:33.232Z,101181.84
2022-08-03T10:18:35.277Z,101175.59
2022-08-03T10:20:44.376Z,101178.06
2022-08-03T10:22:57.634Z,101163.25
2022-08-03T10:25:06.645Z,101182.25
2022-08-03T10:27:10.608Z,101166.44
2022-08-03T10:29:18.687Z,101168.09
2022-08-03T10:31:24.116Z,101169.44
2022-08-03T10:33:50.954Z,101170.16
2022-08-03T10:35:57.581Z,101166.53
2022-08-03T10:38:02.093Z,101175.22
2022-08-03T10:40:05.263Z,101171.72
2022-08-03T10:42:13.506Z,101171.47
2022-08-03T10:44:21.143Z,101169.66
2022-08-03T10:46:22.955Z,101165.91
2022-08-03T10:48:26.520Z,101173.81
2022-08-03T10:50:28.681Z,101161.59
2022-08-03T10:52:32.492Z,101169.44
2022-08-03T10:55:07.618Z,101179.84
2022-08-03T10:57:58.339Z,101174.56
2022-08-03T11:00:02.846Z,101165.69
2022-08-03T11:02:08.374Z,101153.47
2022-08-03T11:04:19.941Z,101154.84
2022-08-03T11:06:24.782Z,101156.47
2022-08-03T11:08:32.651Z,101144.78
2022-08-03T11:10:35.461Z,101154.81
2022-08-03T11:12:37.410Z,101148.69
2022-08-03T11:14:49.190Z,101149.44
2022-08-03T11:17:07.353Z,101148.25
2022-08-03T11:19:20.151Z,101153.03
2022-08-03T11:21:51.269Z,101146.75
2022-08-03T11:24:04.209Z,101161.25
2022-08-03T11:26:11.500Z,101142.94
2022-08-03T11:28:27.367Z,101138.22
2022-08-03T11:30:29.868Z,101147.69
2022-08-03T11:32:37.734Z,101148.50
2022-08-03T11:35:11.863Z,101144.09
2022-08-03T11:37:21.953Z,101167.75
2022-08-03T11:39:47.587Z,101151.97
2022-08-03T11:41:49.299Z,101146.88
2022-08-03T11:43:51.027Z,101149.75
2022-08-03T11:46:28.271Z,101158.59
2022-08-03T11:48:34.407Z,101148.50
2022-08-03T11:50:38.035Z,101157.19
2022-08-03T11:52:42.628Z,101147.75
2022-08-03T11:54:44.699Z,101145.97
2022-08-03T11:56:47.614Z,101151.00
2022-08-03T11:59:11.262Z,101145.75
2022-08-03T12:01:22.894Z,101144.59
2022-08-03T12:03:24.914Z,101146.72
2022-08-03T12:05:38.553Z,101148.59
2022-08-03T12:08:04.872Z,101155.34
2022-08-03T12:10:12.901Z,101146.19
2022-08-03T12:12:16.440Z,101148.66
2022-08-03T12:14:48.823Z,101157.06
2022-08-03T12:16:46.811Z,101151.50
2022-08-03T12:19:15.627Z,101147.47
2022-08-03T12:21:18.893Z,101141.47
2022-08-03T12:23:20.708Z,101152.56
2022-08-03T12:25:39.569Z,101147.75
2022-08-03T12:27:41.632Z,101152.66
2022-08-03T12:29:43.417Z,101146.59
2022-08-03T12:32:00.229Z,101158.28
2022-08-03T12:34:04.446Z,101136.38
2022-08-03T12:36:09.481Z,101128.66
2022-08-03T12:38:13.016Z,101141.50
2022-08-03T12:40:20.552Z,101158.66
2022-08-03T12:42:31.109Z,101152.16
2022-08-03T12:44:35.612Z,101141.16
2022-08-03T12:46:43.952Z,101141.97
2022-08-03T12:49:06.329Z,101126.16
2022-08-03T12:51:12.011Z,101128.66
2022-08-03T12:53:29.140Z,101130.59
2022-08-03T12:55:57.833Z,101131.41
2022-08-03T12:57:56.133Z,101145.84
2022-08-03T13:00:21.633Z,101127.50
2022-08-03T13:02:31.601Z,101123.66
2022-08-03T13:04:36.014Z,101134.47
2022-08-03T13:06:37.791Z,101132.84
2022-08-03T13:08:39.694Z,101122.28
2022-08-03T13:10:42.779Z,101124.06
2022-08-03T13:12:58.689Z,101119.47
2022-08-03T13:15:01.199Z,101119.38
2022-08-03T13:17:03.812Z,101128.44
2022-08-03T13:19:06.331Z,101126.06
2022-08-03T13:21:17.216Z,101110.41
2022-08-03T13:23:22.074Z,101127.81
2022-08-03T13:25:24.483Z,101121.56
2022-08-03T13:28:04.551Z,101116.72
2022-08-03T13:29:48.038Z,101126.56
2022-08-03T13:31:50.310Z,101126.00
2022-08-03T13:33:52.879Z,101109.22
2022-08-03T13:35:55.287Z,101114.38
2022-08-03T13:37:57.042Z,101132.44
2022-08-03T13:40:02.726Z,101109.44
2022-08-03T13:42:06.834Z,101106.13
2022-08-03T13:44:29.409Z,101100.78
2022-08-03T13:46:30.296Z,101103.00
2022-08-03T13:48:36.587Z,101115.53
2022-08-03T13:50:43.061Z,101119.72
2022-08-03T13:52:57.388Z,101109.53
2022-08-03T13:54:59.992Z,101105.09
2022-08-03T13:58:01.422Z,101114.81
2022-08-03T13:59:25.361Z,101104.63
2022-08-03T14:01:54.035Z,101107.75
2022-08-03T14:03:52.546Z,101094.03
2022-08-03T14:05:54.207Z,101096.41
2022-08-03T14:07:56.854Z,101096.28
2022-08-03T14:10:06.149Z,101096.13
2022-08-03T14:12:09.011Z,101084.63
2022-08-03T14:14:11.182Z,101089.88
2022-08-03T14:16:16.964Z,101088.50
2022-08-03T14:18:29.169Z,101091.16
2022-08-03T14:20:48.805Z,101082.72
2022-08-03T14:22:56.397Z,101091.50
2022-08-03T14:24:58.142Z,101092.38
2022-08-03T14:27:07.093Z,101085.03
2022-08-03T14:29:10.390Z,101091.56
2022-08-03T14:32:10.417Z,101093.13
2022-08-03T14:33:34.533Z,101091.47
2022-08-03T14:35:36.543Z,101089.44
2022-08-03T14:37:38.431Z,101077.97
2022-08-03T14:42:02.562Z,101067.41
2022-08-03T14:44:05.504Z,101071.84
2022-08-03T14:46:07.224Z,101060.66
2022-08-03T14:50:30.651Z,101056.25
2022-08-03T14:50:42.040Z,101072.22
2022-08-03T14:53:05.097Z,101083.75
2022-08-03T14:55:07.854Z,101060.84
2022-08-03T14:57:09.615Z,101055.22
2022-08-03T14:59:11.344Z,101060.00
2022-08-03T15:02:02.271Z,101044.69
2022-08-03T15:03:34.910Z,101057.78
2022-08-03T15:05:36.681Z,101049.53
2022-08-03T15:07:39.577Z,101054.59
2022-08-03T15:09:41.329Z,101045.63
2022-08-03T15:11:43.130Z,101046.16
2022-08-03T15:13:44.804Z,101043.44
2022-08-03T15:15:47.787Z,101052.00
2022-08-03T15:18:00.173Z,101045.91
2022-08-03T15:20:23.370Z,101042.06
2022-08-03T15:22:25.239Z,101032.56
2022-08-03T15:24:36.537Z,101028.75
2022-08-03T15:26:41.545Z,101026.25
2022-08-03T15:28:43.613Z,101026.00
2022-08-03T15:30:45.427Z,101038.41
2022-08-03T15:32:56.355Z,101044.66
2022-08-03T15:34:58.159Z,101031.78
2022-08-03T15:37:16.359Z,101025.50
2022-08-03T15:39:18.439Z,101030.84
2022-08-03T15:41:20.337Z,101020.78
2022-08-03T15:43:23.160Z,101031.56
2022-08-03T15:45:24.873Z,101021.84
2022-08-03T15:47:29.606Z,101035.88
2022-08-03T15:49:31.346Z,101023.84
2022-08-03T15:51:33.207Z,101023.06
2022-08-03T15:53:35.215Z,101031.06
2022-08-03T15:55:36.942Z,101029.50
2022-08-03T15:59:03.928Z,101027.97
2022-08-03T16:00:02.334Z,101032.59
2022-08-03T16:02:04.260Z,101024.41
2022-08-03T16:04:06.095Z,101025.63
2022-08-03T16:06:08.114Z,101027.09
2022-08-03T16:08:13.645Z,101020.41
2022-08-03T16:10:17.573Z,101024.63
2022-08-03T16:12:19.271Z,101029.91
2022-08-03T16:14:32.495Z,101024.22
2022-08-03T16:16:41.031Z,101026.50
2022-08-03T16:18:42.872Z,101027.00
2022-08-03T16:20:45.271Z,101032.97
2022-08-03T16:22:54.408Z,101024.63
2022-08-03T16:24:56.402Z,101025.03
2022-08-03T16:26:58.183Z,101043.69
2022-08-03T16:29:02.518Z,101030.25
2022-08-03T16:31:05.737Z,101030.56
2022-08-03T16:33:07.655Z,101038.16
2022-08-03T16:35:19.236Z,101033.94
2022-08-03T16:37:38.121Z,101033.31
2022-08-03T16:39:40.675Z,101034.47
2022-08-03T16:41:54.490Z,101023.97
2022-08-03T16:44:08.082Z,101036.00
2022-08-03T16:46:11.758Z,101031.03
2022-08-03T16:48:14.419Z,101041.13
2022-08-03T16:50:19.872Z,101040.16
2022-08-03T16:52:21.953Z,101036.72
2022-08-03T16:54:24.664Z,101037.44
2022-08-03T16:56:29.748Z,101041.06
2022-08-03T16:58:41.800Z,101026.88
2022-08-03T17:00:46.293Z,101027.50
2022-08-03T17:02:55.389Z,101019.53
2022-08-03T17:04:58.516Z,101024.72
2022-08-03T17:07:01.558Z,101036.84
2022-08-03T17:09:17.963Z,101037.03
2022-08-03T17:11:20.427Z,101033.53
2022-08-03T17:13:22.884Z,101027.28
2022-08-03T17:15:51.719Z,101028.66
2022-08-03T17:18:04.249Z,101034.19
2022-08-03T17:20:09.734Z,101018.69
2022-08-03T17:22:20.581Z,101028.38
2022-08-03T17:24:41.112Z,101021.75
2022-08-03T17:26:49.999Z,101029.47
2022-08-03T17:28:57.499Z,101030.94
2022-08-03T17:31:23.496Z,101022.34
2022-08-03T17:33:35.609Z,101028.09
2022-08-03T17:35:38.456Z,101019.09
2022-08-03T17:37:57.430Z,101027.13
2022-08-03T17:40:00.815Z,101030.44
2022-08-03T17:42:29.457Z,101027.03
2022-08-03T17:44:38.748Z,101025.19
2022-08-03T17:46:46.022Z,101012.16
2022-08-03T17:48:49.662Z,101014.34
2022-08-03T17:50:55.576Z,101016.09
2022-08-03T17:53:14.469Z,101020.03
2022-08-03T17:55:57.715Z,101027.63
2022-08-03T17:58:02.205Z,101022.47
2022-08-03T18:00:24.711Z,101029.75
2022-08-03T18:02:54.958Z,101031.03
2022-08-03T18:05:16.305Z,101037.56
2022-08-03T18:07:23.178Z,101034.97
2022-08-03T18:10:05.565Z,101025.66
2022-08-03T18:11:55.576Z,101027.25
2022-08-03T18:14:27.591Z,101025.75
2022-08-03T18:16:42.905Z,101027.72
2022-08-03T18:18:45.057Z,101036.69
2022-08-03T18:20:51.408Z,101038.06
2022-08-03T18:22:54.834Z,101026.78
2022-08-03T18:24:56.557Z,101026.84
2022-08-03T18:27:02.346Z,101033.00
2022-08-03T18:29:04.834Z,101029.56
2022-08-03T18:31:13.268Z,101030.44
2022-08-03T18:34:17.025Z,101029.28
2022-08-03T18:36:00.544Z,101031.06
2022-08-03T18:38:03.631Z,101023.16
2022-08-03T18:40:12.390Z,101043.31
2022-08-03T18:42:25.930Z,101042.34
2022-08-03T18:44:46.441Z,101048.72
2022-08-03T18:47:08.035Z,101047.88
2022-08-03T18:49:48.588Z,101041.75
2022-08-03T18:51:56.061Z,101040.13
2022-08-03T18:54:12.234Z,101041.16
2022-08-03T18:56:51.661Z,101048.19
2022-08-03T18:59:11.218Z,101039.66
2022-08-03T19:01:58.435Z,101035.16
2022-08-03T19:04:13.417Z,101042.56
2022-08-03T19:06:22.928Z,101043.72
2022-08-03T19:08:37.272Z,101052.00
2022-08-03T19:10:40.827Z,101045.81
2022-08-03T19:13:30.833Z,101043.06
2022-08-03T19:15:36.813Z,101045.00
2022-08-03T19:17:50.292Z,101051.19
2022-08-03T19:19:57.565Z,101051.63
2022-08-03T19:21:59.845Z,101049.63
2022-08-03T19:24:09.487Z,101055.06
2022-08-03T19:26:30.545Z,101051.06
2022-08-03T19:28:35.143Z,101046.59
2022-08-03T19:30:53.297Z,101058.91
2022-08-03T19:33:00.696Z,101055.66
2022-08-03T19:35:05.447Z,101057.38
2022-08-03T19:37:15.514Z,101064.47
2022-08-03T19:39:17.899Z,101067.47
2022-08-03T19:41:21.973Z,101064.72
2022-08-03T19:43:53.330Z,101059.81
2022-08-03T19:46:06.310Z,101058.94
2022-08-03T19:48:25.048Z,101075.72
2022-08-03T19:50:32.583Z,101080.34
2022-08-03T19:52:38.248Z,101078.63
2022-08-03T19:54:53.596Z,101074.19
2022-08-03T19:56:56.661Z,101070.97
2022-08-03T19:58:59.587Z,101073.56
2022-08-03T20:01:19.458Z,101079.72
2022-08-03T20:03:23.370Z,101081.91
2022-08-03T20:05:27.327Z,101080.88
2022-08-03T20:07:32.857Z,101086.25
2022-08-03T20:09:35.894Z,101098.50
2022-08-03T20:11:47.765Z,101112.63
2022-08-03T20:13:51.680Z,101109.16
2022-08-03T20:15:53.605Z,101107.47
2022-08-03T20:17:58.792Z,101102.50
2022-08-03T20:20:00.841Z,101112.16
2022-08-03T20:22:02.613Z,101107.16
2022-08-03T20:24:23.858Z,101108.88
2022-08-03T20:26:32.279Z,101108.13
2022-08-03T20:28:50.415Z,101110.84
2022-08-03T20:31:10.656Z,101104.78
2022-08-03T20:33:12.494Z,101101.41
2022-08-03T20:35:20.919Z,101104.25
2022-08-03T20:37:22.616Z,101099.78
2022-08-03T20:39:24.356Z,101106.94
2022-08-03T20:41:30.701Z,101105.22
2022-08-03T20:43:33.628Z,101119.53
2022-08-03T20:45:59.651Z,101108.38
2022-08-03T20:47:57.824Z,101111.66
2022-08-03T20:50:00.501Z,101116.09
2022-08-03T20:52:02.471Z,101106.34
2022-08-03T20:54:28.680Z,101110.72
2022-08-03T20:56:31.897Z,101111.69
2022-08-03T20:58:36.609Z,101107.28
2022-08-03T21:00:38.458Z,101103.84
2022-08-03T21:02:40.386Z,101100.47
2022-08-03T21:04:45.032Z,101100.41
2022-08-03T21:06:56.042Z,101104.75
2022-08-03T21:09:04.260Z,101097.69
2022-08-03T21:11:16.475Z,101100.06
2022-08-03T21:13:32.244Z,101099.16
2022-08-03T21:16:06.615Z,101098.16
2022-08-03T21:17:59.437Z,101099.81
2022-08-03T21:20:05.826Z,101099.88
2022-08-03T21:22:09.036Z,101102.59
2022-08-03T21:24:13.303Z,101107.94
2022-08-03T21:26:17.506Z,101111.03
2022-08-03T21:28:27.290Z,101109.22
2022-08-03T21:30:30.589Z,101104.91
2022-08-03T21:32:33.535Z,101108.34
2022-08-03T21:34:36.044Z,101100.59
2022-08-03T21:36:38.110Z,101110.34
2022-08-03T21:38:40.978Z,101104.47
2022-08-03T21:40:42.755Z,101101.00
2022-08-03T21:42:53.049Z,101094.81
2022-08-03T21:44:54.808Z,101099.22
2022-08-03T21:46:58.172Z,101109.72
2022-08-03T21:50:06.082Z,101106.47
2022-08-03T21:51:26.024Z,101109.94
2022-08-03T21:54:02.676Z,101108.22
2022-08-03T21:56:17.995Z,101113.50
2022-08-03T21:58:29.600Z,101108.22
2022-08-03T22:00:31.518Z,101115.25
2022-08-03T22:02:35.395Z,101116.13
2022-08-03T22:04:54.987Z,101117.88
2022-08-03T22:06:57.855Z,101121.34
2022-08-03T22:08:59.898Z,101117.91
2022-08-03T22:11:04.402Z,101114.34
2022-08-03T22:13:06.721Z,101128.38
2022-08-03T22:15:11.466Z,101118.13
2022-08-03T22:17:14.474Z,101125.94
2022-08-03T22:19:36.126Z,101122.59
2022-08-03T22:21:39.874Z,101124.50
2022-08-03T22:23:50.478Z,101129.66
2022-08-03T22:25:52.851Z,101134.81
2022-08-03T22:27:55.166Z,101133.94
2022-08-03T22:30:02.335Z,101133.94
2022-08-03T22:32:04.268Z,101126.13
2022-08-03T22:34:05.976Z,101123.56
2022-08-03T22:36:10.629Z,101127.06
2022-08-03T22:38:12.370Z,101130.50
2022-08-03T22:40:15.524Z,101130.59
2022-08-03T22:42:19.637Z,101128.91
2022-08-03T22:44:22.138Z,101132.44
2022-08-03T22:46:25.941Z,101129.78
2022-08-03T22:48:28.145Z,101139.63
2022-08-03T22:50:34.830Z,101145.00
2022-08-03T22:52:38.696Z,101145.81
2022-08-03T22:54:41.366Z,101145.03
2022-08-03T22:56:44.897Z,101145.97
2022-08-03T22:58:46.543Z,101153.91
2022-08-03T23:00:53.907Z,101159.25
2022-08-03T23:03:00.297Z,101160.09
2022-08-03T23:05:05.475Z,101154.97
2022-08-03T23:07:15.191Z,101165.41
2022-08-03T23:09:19.793Z,101151.56
2022-08-03T23:11:23.404Z,101156.03
2022-08-03T23:13:27.844Z,101159.44
2022-08-03T23:15:30.526Z,101156.19
2022-08-03T23:17:33.752Z,101159.66
2022-08-03T23:19:44.587Z,101156.22
2022-08-03T23:21:53.733Z,101157.94
2022-08-03T23:24:05.401Z,101168.56
2022-08-03T23:26:19.645Z,101165.09
2022-08-03T23:28:22.032Z,101166.03
2022-08-03T23:30:31.455Z,101157.34
2022-08-03T23:32:34.899Z,101155.56
2022-08-03T23:34:57.711Z,101167.84
2022-08-03T23:37:01.779Z,101162.56
2022-08-03T23:39:04.070Z,101161.69
2022-08-03T23:41:08.411Z,101166.09
2022-08-03T23:43:16.688Z,101165.25
2022-08-03T23:45:35.801Z,101159.22
2022-08-03T23:47:46.235Z,101154.81
2022-08-03T23:49:50.049Z,101153.13
2022-08-03T23:51:54.843Z,101153.13
2022-08-03T23:54:31.977Z,101156.66
2022-08-03T23:56:50.779Z,101159.22
2022-08-03T23:59:36.535Z,101159.19
